Time;durP1;ratioP1;P1;durP2;ratioP2;P2;SDS_P1;SDS_P2;PMS_P1;PMS_P2;Temp;Humidity;BMP_temperature;BMP_pressure;BME280_temperature;BME280_humidity;BME280_pressure;Samples;Min_cycle;Max_cycle;Signal;HPM_P1;HPM_P2
2022/02/05 00:00:14;;;;;;;0.10;0.10;;;;;;;8.19;53.97;101643.66;5063174;28;20039;-85
2022/02/05 00:02:40;;;;;;;0.20;0.20;;;;;;;8.15;54.11;101673.56;5061079;28;20364;-85
2022/02/05 00:05:07;;;;;;;0.20;0.20;;;;;;;7.95;53.89;101650.63;5062533;28;20028;-84
2022/02/05 00:07:38;;;;;;;0.10;0.10;;;;;;;8.11;54.39;101651.53;5068304;28;20035;-85
2022/02/05 00:15:42;;;;;;;0.10;0.10;;;;;;;8.23;53.64;101656.00;5059732;28;21216;-85
2022/02/05 00:40:40;;;;;;;0.10;0.10;;;;;;;7.94;55.18;101670.84;5056965;28;20470;-85
2022/02/05 00:43:03;;;;;;;0.10;0.10;;;;;;;7.99;55.02;101672.59;5047879;28;20048;-85
2022/02/05 00:45:41;;;;;;;0.10;0.10;;;;;;;8.11;55.01;101670.00;5057553;28;20033;-85
2022/02/05 00:48:11;;;;;;;0.10;0.10;;;;;;;7.99;55.05;101676.16;5063943;28;20027;-86
2022/02/05 00:50:45;;;;;;;0.20;0.20;;;;;;;8.01;55.41;101677.03;5049462;28;20029;-86
2022/02/05 00:53:22;;;;;;;0.10;0.10;;;;;;;8.04;55.17;101677.03;5048555;28;20108;-86
2022/02/05 00:55:55;;;;;;;2.72;1.60;;;;;;;7.97;55.53;101683.16;5053273;28;20029;-85
2022/02/05 00:58:22;;;;;;;0.10;0.10;;;;;;;7.99;55.85;101686.69;5057241;28;20032;-85
2022/02/05 01:00:48;;;;;;;0.10;0.10;;;;;;;7.91;55.14;101685.78;5054593;28;20084;-85
2022/02/05 01:03:14;;;;;;;0.10;0.10;;;;;;;7.90;55.86;101689.28;5050551;28;20029;-86
2022/02/05 01:05:42;;;;;;;0.05;0.05;;;;;;;7.85;55.53;101691.03;5050311;28;20029;-86
2022/02/05 01:08:08;;;;;;;0.10;0.10;;;;;;;7.80;55.90;101698.94;5056686;28;20021;-86
2022/02/05 01:10:35;;;;;;;0.08;0.08;;;;;;;7.80;55.24;101704.22;5063168;28;20095;-86
2022/02/05 01:13:06;;;;;;;0.10;0.10;;;;;;;7.94;55.10;101701.63;5054621;28;20104;-85
2022/02/05 01:15:40;;;;;;;0.10;0.10;;;;;;;7.87;55.36;101705.13;5045911;28;20033;-85
2022/02/05 01:18:09;;;;;;;0.40;0.40;;;;;;;7.83;55.08;101695.44;5055220;28;20040;-85
2022/02/05 01:23:32;;;;;;;0.10;0.10;;;;;;;7.76;55.38;101713.88;5057445;28;20124;-85
2022/02/05 01:26:08;;;;;;;0.10;0.10;;;;;;;7.83;54.85;101714.75;5055495;28;20044;-86
2022/02/05 01:28:36;;;;;;;0.10;0.10;;;;;;;7.88;54.71;101723.59;5052979;28;20029;-85
2022/02/05 01:31:03;;;;;;;0.10;0.10;;;;;;;7.85;54.94;101723.59;5046667;28;20040;-86
2022/02/05 01:33:45;;;;;;;0.10;0.10;;;;;;;7.86;55.08;101724.44;5051509;28;20029;-86
2022/02/05 01:36:30;;;;;;;2.05;1.95;;;;;;;7.81;55.76;101744.66;5047769;28;20021;-85
2022/02/05 01:56:21;;;;;;;0.13;0.13;;;;;;;7.69;56.29;101746.34;5066977;28;20041;-85
2022/02/05 01:58:53;;;;;;;0.20;0.20;;;;;;;7.85;55.79;101749.06;5068461;28;20036;-84
2022/02/05 02:07:12;;;;;;;0.15;0.15;;;;;;;7.70;56.02;101777.13;5062924;28;20471;-85
2022/02/05 02:12:23;;;;;;;0.10;0.10;;;;;;;7.71;56.15;101773.63;5076750;28;20963;-85
2022/02/05 02:14:59;;;;;;;0.10;0.10;;;;;;;7.65;56.34;101786.78;5069543;28;20051;-85
2022/02/05 02:18:02;;;;;;;0.05;0.05;;;;;;;7.66;56.70;101790.28;5052435;28;20029;-86
2022/02/05 02:20:27;;;;;;;0.10;0.10;;;;;;;7.81;56.34;101778.94;5051913;28;20037;-86
2022/02/05 02:25:55;;;;;;;0.10;0.10;;;;;;;7.73;56.04;101802.66;5047628;28;20048;-86
2022/02/05 02:28:40;;;;;;;0.10;0.10;;;;;;;7.76;56.72;101802.66;5048460;28;20029;-86
2022/02/05 02:31:11;;;;;;;0.10;0.10;;;;;;;7.70;56.36;101803.50;5048977;28;20037;-86
2022/02/05 02:33:43;;;;;;;0.10;0.10;;;;;;;7.78;56.47;101803.56;5049148;28;20026;-86
2022/02/05 02:36:23;;;;;;;0.10;0.10;;;;;;;7.71;55.96;101800.00;5047600;28;20379;-86
2022/02/05 02:38:53;;;;;;;0.10;0.10;;;;;;;7.71;56.11;101810.56;5046115;28;20272;-86
2022/02/05 02:41:27;;;;;;;19.30;1.20;;;;;;;7.63;56.44;101816.63;5048799;28;20029;-86
2022/02/05 02:43:53;;;;;;;0.10;0.10;;;;;;;7.61;56.20;101814.88;5048788;28;20017;-85
2022/02/05 02:46:20;;;;;;;0.10;0.10;;;;;;;7.73;56.56;101818.47;5047961;28;20379;-86
2022/02/05 02:48:48;;;;;;;0.10;0.10;;;;;;;7.69;56.68;101814.94;5048955;28;20091;-86
2022/02/05 02:56:58;;;;;;;0.20;0.20;;;;;;;7.61;56.73;101820.16;5048314;28;20032;-86
2022/02/05 03:02:11;;;;;;;0.20;0.20;;;;;;;7.60;56.86;101823.66;4700067;27;10430809;-86
2022/02/05 03:04:37;;;;;;;0.20;0.20;;;;;;;7.58;56.86;101827.16;5052586;28;20109;-86
2022/02/05 03:07:04;;;;;;;0.10;0.10;;;;;;;7.50;57.35;101840.28;5028656;28;20026;-86
2022/02/05 03:09:31;;;;;;;0.10;0.10;;;;;;;7.55;57.47;101830.66;5052680;28;20365;-86
2022/02/05 03:11:57;;;;;;;0.10;0.10;;;;;;;7.63;57.51;101838.63;5046682;28;20112;-87
2022/02/05 03:14:23;;;;;;;0.10;0.10;;;;;;;7.61;57.66;101837.72;5029234;28;20469;-86
2022/02/05 03:16:52;;;;;;;0.32;0.32;;;;;;;7.72;57.00;101853.63;5039203;28;20033;-86
2022/02/05 03:19:18;;;;;;;0.10;0.10;;;;;;;7.75;56.72;101851.00;5040431;28;20383;-86
2022/02/05 03:21:45;;;;;;;0.10;0.10;;;;;;;7.69;56.99;101849.22;5038474;28;20472;-86
2022/02/05 03:24:12;;;;;;;0.10;0.10;;;;;;;7.72;57.48;101843.97;5046162;28;20384;-86
2022/02/05 03:26:38;;;;;;;0.10;0.10;;;;;;;7.69;57.30;101854.50;5045538;28;20869;-86
2022/02/05 03:29:08;;;;;;;0.10;0.10;;;;;;;7.70;57.34;101852.72;5041635;28;20030;-87
2022/02/05 03:31:35;;;;;;;0.52;0.52;;;;;;;7.71;56.89;101851.88;5016276;28;20030;-86
2022/02/05 03:34:02;;;;;;;0.10;0.10;;;;;;;7.73;57.41;101845.72;5045365;28;20022;-86
2022/02/05 03:36:28;;;;;;;0.10;0.10;;;;;;;7.74;57.19;101858.06;5045543;28;20029;-86
2022/02/05 03:38:54;;;;;;;0.10;0.10;;;;;;;7.77;57.20;101857.19;5045072;28;20033;-86
2022/02/05 03:41:20;;;;;;;0.10;0.10;;;;;;;7.65;57.60;101852.72;5042966;28;20037;-86
2022/02/05 03:43:46;;;;;;;0.20;0.20;;;;;;;7.59;57.31;101857.94;5045528;28;20034;-86
2022/02/05 03:46:13;;;;;;;0.10;0.10;;;;;;;7.60;57.48;101857.03;5045699;28;20030;-86
2022/02/05 03:48:39;;;;;;;0.10;0.10;;;;;;;7.65;57.34;101862.38;5044871;28;20021;-86
2022/02/05 03:51:05;;;;;;;0.17;0.17;;;;;;;7.61;57.34;101858.81;5026124;28;20056;-86
2022/02/05 03:53:31;;;;;;;0.08;0.08;;;;;;;7.55;57.49;101861.41;5039407;28;20049;-86
2022/02/05 03:55:57;;;;;;;0.10;0.10;;;;;;;7.56;58.16;101858.81;5027628;28;20098;-87
2022/02/05 03:58:23;;;;;;;0.10;0.10;;;;;;;7.48;58.23;101880.66;5039933;28;20112;-87
2022/02/05 04:00:50;;;;;;;0.10;0.10;;;;;;;7.59;57.58;101869.34;5033418;28;20033;-86
2022/02/05 04:03:16;;;;;;;0.10;0.10;;;;;;;7.57;57.90;101870.22;5030528;28;20105;-86
2022/02/05 04:05:42;;;;;;;0.20;0.20;;;;;;;7.53;57.57;101882.50;5033168;28;20025;-86
2022/02/05 04:08:10;;;;;;;0.10;0.10;;;;;;;7.45;58.42;101882.44;5037483;28;20123;-87
2022/02/05 04:10:45;;;;;;;0.10;0.10;;;;;;;7.40;58.21;101878.88;5041636;28;20033;-86
2022/02/05 04:16:26;;;;;;;0.20;0.20;;;;;;;7.45;58.47;101881.53;5029921;28;20041;-87
2022/02/05 04:18:48;;;;;;;0.10;0.10;;;;;;;7.44;58.45;101885.94;5016542;28;20436;-87
2022/02/05 04:21:14;;;;;;;0.10;0.10;;;;;;;7.38;58.43;101895.53;5019784;28;20041;-86
2022/02/05 04:23:41;;;;;;;0.10;0.10;;;;;;;7.39;58.60;101897.28;5025461;28;20032;-86
2022/02/05 04:26:07;;;;;;;0.10;0.10;;;;;;;7.37;58.71;101902.53;5030062;28;20014;-86
2022/02/05 04:28:35;;;;;;;0.10;0.10;;;;;;;7.28;58.42;101907.72;5016570;28;20040;-87
2022/02/05 04:31:01;;;;;;;0.10;0.10;;;;;;;7.41;58.53;101907.00;5019701;28;20077;-87
2022/02/05 04:33:27;;;;;;;0.10;0.10;;;;;;;7.33;58.73;101908.66;5027882;28;20088;-86
2022/02/05 04:35:54;;;;;;;0.10;0.10;;;;;;;7.35;58.77;101906.94;5029782;28;20033;-87
2022/02/05 04:38:21;;;;;;;0.10;0.10;;;;;;;7.33;58.65;101915.66;5030842;28;20026;-86
2022/02/05 04:40:54;;;;;;;0.10;0.10;;;;;;;7.33;58.28;101913.03;5031117;28;20034;-86
2022/02/05 04:43:52;;;;;;;0.10;0.10;;;;;;;7.22;59.03;101915.56;5011880;28;20069;-86
2022/02/05 05:00:43;;;;;;;0.10;0.10;;;;;;;7.26;59.46;101923.53;5074272;27;20443;-85
2022/02/05 05:06:10;;;;;;;0.10;0.10;;;;;;;7.32;58.88;101927.97;5077857;27;20385;-86
2022/02/05 05:08:26;;;;;;;0.10;0.10;;;;;;;7.27;59.66;101927.91;5064877;28;20128;-86
2022/02/05 05:22:20;;;;;;;0.10;0.10;;;;;;;7.28;59.53;101939.38;5093260;27;20344;-87
2022/02/05 05:24:46;;;;;;;0.10;0.10;;;;;;;7.24;59.69;101938.44;5082044;28;20043;-87
2022/02/05 05:27:12;;;;;;;0.10;0.10;;;;;;;7.19;59.84;101941.88;5087510;28;20078;-86
2022/02/05 05:29:38;;;;;;;0.10;0.10;;;;;;;7.18;59.72;101940.09;5080445;28;20111;-86
2022/02/05 05:32:05;;;;;;;0.10;0.10;;;;;;;7.11;60.18;101933.88;5077283;28;20529;-86
2022/02/05 05:34:32;;;;;;;0.10;0.10;;;;;;;7.15;59.76;101929.53;5067539;28;20476;-86
2022/02/05 05:37:00;;;;;;;0.40;0.40;;;;;;;7.13;60.09;101933.03;5051243;28;20033;-86
2022/02/05 05:39:28;;;;;;;0.10;0.10;;;;;;;7.20;60.00;101933.13;5075894;28;20024;-86
2022/02/05 05:41:54;;;;;;;0.10;0.10;;;;;;;7.22;59.64;101936.66;5084177;28;20375;-86
2022/02/05 05:44:48;;;;;;;0.10;0.10;;;;;;;7.20;59.47;101938.38;5088477;28;20024;-86
2022/02/05 05:47:19;;;;;;;0.20;0.20;;;;;;;7.27;59.42;101945.50;5089440;28;20036;-86
2022/02/05 05:52:34;;;;;;;0.10;0.10;;;;;;;7.05;59.81;101950.53;5070298;27;20409;-85
2022/02/05 05:55:00;;;;;;;0.10;0.10;;;;;;;7.10;59.64;101958.47;5068490;28;20467;-85
2022/02/05 05:57:27;;;;;;;0.10;0.10;;;;;;;6.96;60.16;101967.06;5059969;28;20044;-85
2022/02/05 05:59:53;;;;;;;0.10;0.10;;;;;;;6.95;60.22;101962.69;5061513;28;20483;-86
2022/02/05 06:02:20;;;;;;;0.10;0.10;;;;;;;7.00;59.77;101960.09;5044643;28;20574;-85
2022/02/05 06:04:46;;;;;;;0.10;0.10;;;;;;;7.01;59.69;101959.25;5047888;28;20033;-86
2022/02/05 06:07:12;;;;;;;0.05;0.05;;;;;;;7.03;59.84;101960.16;5047524;28;20017;-86
2022/02/05 06:09:42;;;;;;;0.10;0.10;;;;;;;6.99;59.45;101950.47;5046912;28;20109;-86
2022/02/05 06:12:11;;;;;;;0.20;0.20;;;;;;;6.94;59.54;101954.75;5045212;28;20386;-86
2022/02/05 06:14:37;;;;;;;0.10;0.10;;;;;;;6.92;59.98;101951.22;5047694;28;20099;-86
2022/02/05 06:17:08;;;;;;;0.15;0.15;;;;;;;6.84;60.00;101956.41;5047734;28;20022;-85
2022/02/05 06:19:39;;;;;;;0.17;0.17;;;;;;;6.88;60.10;101965.22;5046166;28;20494;-85
2022/02/05 06:22:05;;;;;;;0.10;0.10;;;;;;;6.87;60.02;101968.75;5047452;28;20041;-86
2022/02/05 06:24:32;;;;;;;0.10;0.10;;;;;;;6.78;60.18;101973.00;5047094;28;20463;-86
2022/02/05 06:26:58;;;;;;;0.10;0.10;;;;;;;6.74;59.85;101971.19;5047581;28;20029;-85
2022/02/05 06:29:24;;;;;;;0.10;0.10;;;;;;;6.78;59.93;101983.53;5041606;28;20480;-85
2022/02/05 06:31:50;;;;;;;0.10;0.10;;;;;;;6.74;60.07;101997.53;5045535;28;20068;-86
2022/02/05 06:34:16;;;;;;;0.10;0.10;;;;;;;6.76;60.07;101990.53;5047222;28;20033;-86
2022/02/05 06:36:42;;;;;;;0.10;0.10;;;;;;;6.75;60.31;101987.88;5047293;28;20547;-85
2022/02/05 06:39:12;;;;;;;0.10;0.10;;;;;;;6.80;60.00;101986.19;5046613;28;20035;-85
2022/02/05 06:41:38;;;;;;;0.08;0.08;;;;;;;6.82;59.91;101980.94;5045944;28;20025;-85
2022/02/05 06:44:04;;;;;;;0.10;0.10;;;;;;;6.82;59.77;101975.66;5046421;28;20080;-86
2022/02/05 06:46:31;;;;;;;0.40;0.40;;;;;;;6.77;60.20;101989.66;5046772;28;20102;-86
2022/02/05 06:48:57;;;;;;;0.10;0.10;;;;;;;6.77;59.87;101994.06;5047704;28;20067;-86
2022/02/05 06:51:23;;;;;;;0.10;0.10;;;;;;;6.76;59.85;101987.88;5045376;28;20037;-85
2022/02/05 06:53:49;;;;;;;0.10;0.10;;;;;;;6.70;60.39;102000.09;5045606;28;20494;-85
2022/02/05 06:56:15;;;;;;;0.40;0.40;;;;;;;6.64;60.25;101999.16;5047519;28;20120;-85
2022/02/05 06:58:41;;;;;;;0.10;0.10;;;;;;;6.63;60.26;101999.13;5047617;28;20061;-85
2022/02/05 07:01:07;;;;;;;0.10;0.10;;;;;;;6.58;60.52;102006.06;5046840;28;20108;-85
2022/02/05 07:03:33;;;;;;;0.10;0.10;;;;;;;6.62;60.78;102002.63;5034078;28;20404;-85
2022/02/05 07:05:59;;;;;;;0.03;0.03;;;;;;;6.68;61.09;102007.09;5034137;28;20021;-85
2022/02/05 07:08:25;;;;;;;0.10;0.10;;;;;;;6.75;60.71;102008.94;5034584;28;20403;-85
2022/02/05 07:10:52;;;;;;;0.10;0.10;;;;;;;6.76;60.78;102019.50;5034270;28;20066;-85
2022/02/05 07:13:20;;;;;;;0.10;0.10;;;;;;;6.68;61.18;102023.78;5034512;28;20040;-85
2022/02/05 07:21:29;;;;;;;0.10;0.10;;;;;;;6.89;60.92;102030.22;5067217;28;20416;-85
2022/02/05 07:29:22;;;;;;;0.10;0.10;;;;;;;7.01;60.85;102030.38;5067022;28;20507;-85
2022/02/05 07:34:35;;;;;;;0.10;0.10;;;;;;;7.09;60.94;102039.31;5096196;27;20408;-85
2022/02/05 07:37:03;;;;;;;0.08;0.08;;;;;;;7.13;60.98;102038.47;5091320;28;20028;-85
2022/02/05 07:39:33;;;;;;;0.10;0.10;;;;;;;7.20;61.14;102043.81;5088248;28;20441;-85
2022/02/05 07:42:02;;;;;;;0.10;0.10;;;;;;;7.25;60.71;102036.84;5084873;28;20028;-85
2022/02/05 07:44:28;;;;;;;0.95;0.95;;;;;;;7.32;60.24;102043.13;5086112;28;20043;-84
2022/02/05 07:46:54;;;;;;;0.20;0.20;;;;;;;7.35;60.22;102044.03;5087637;28;20074;-85
2022/02/05 07:49:23;;;;;;;0.10;0.10;;;;;;;7.39;60.29;102045.84;5077687;28;20039;-86
2022/02/05 07:51:50;;;;;;;0.00;0.00;;;;;;;7.39;60.67;102044.94;5077259;28;20036;-85
2022/02/05 07:54:16;;;;;;;0.20;0.20;;;;;;;7.34;60.15;102051.91;5072592;28;20086;-86
2022/02/05 07:56:45;;;;;;;0.15;0.15;;;;;;;7.29;60.75;102038.69;5075879;28;20383;-86
2022/02/05 07:59:13;;;;;;;0.10;0.10;;;;;;;7.31;60.78;102042.22;5075076;28;20474;-86
2022/02/05 08:01:39;;;;;;;0.20;0.20;;;;;;;7.28;60.92;102031.63;5070337;28;20045;-86
2022/02/05 08:04:06;;;;;;;0.10;0.10;;;;;;;7.23;60.59;102028.06;5080668;28;20044;-86
2022/02/05 08:06:34;;;;;;;0.20;0.20;;;;;;;7.27;60.48;102028.09;5081735;28;20108;-85
2022/02/05 08:09:12;;;;;;;0.10;0.10;;;;;;;7.28;61.05;102031.63;5083261;28;20025;-85
2022/02/05 08:11:43;;;;;;;0.10;0.10;;;;;;;7.31;60.45;102020.25;5087439;28;20475;-85
2022/02/05 08:14:11;;;;;;;0.10;0.10;;;;;;;7.28;60.64;102023.72;5080829;28;20032;-86
2022/02/05 08:17:18;;;;;;;0.20;0.20;;;;;;;7.35;60.94;102024.69;5084905;28;20031;-85
2022/02/05 08:19:23;;;;;;;0.10;0.10;;;;;;;7.37;60.88;102026.47;5079383;28;20048;-85
2022/02/05 08:21:49;;;;;;;0.13;0.13;;;;;;;7.30;61.01;102035.16;5088684;28;20028;-85
2022/02/05 08:24:16;;;;;;;0.45;0.45;;;;;;;7.38;61.10;102030.88;5085670;28;20479;-82
2022/02/05 08:26:43;;;;;;;0.20;0.20;;;;;;;7.37;60.94;102036.16;5076058;28;20475;-84
2022/02/05 08:29:11;;;;;;;0.10;0.10;;;;;;;7.47;60.56;102027.47;5079788;28;20037;-84
2022/02/05 08:31:37;;;;;;;0.10;0.10;;;;;;;7.52;60.75;102035.44;5082319;28;20032;-81
2022/02/05 08:34:04;;;;;;;0.20;0.20;;;;;;;7.45;60.47;102051.19;5083361;28;20043;-83
2022/02/05 08:36:39;;;;;;;0.10;0.10;;;;;;;7.52;61.21;102038.09;5087751;28;20488;-83
2022/02/05 08:39:05;;;;;;;0.10;0.10;;;;;;;7.52;61.29;102049.50;5076831;28;20036;-84
2022/02/05 08:41:31;;;;;;;0.30;0.30;;;;;;;7.63;60.87;102049.63;5070882;28;20399;-83
2022/02/05 08:43:57;;;;;;;0.10;0.10;;;;;;;7.73;60.72;102058.53;5073972;28;20044;-84
2022/02/05 08:46:23;;;;;;;0.10;0.10;;;;;;;7.79;60.04;102061.25;5060225;28;20040;-83
2022/02/05 08:48:50;;;;;;;0.10;0.10;;;;;;;7.88;59.76;102068.38;5071485;28;20418;-84
2022/02/05 08:51:16;;;;;;;0.10;0.10;;;;;;;7.78;59.55;102070.91;5065070;28;20033;-85
2022/02/05 08:53:42;;;;;;;0.10;0.10;;;;;;;7.90;60.29;102070.16;5055113;28;20502;-84
2022/02/05 08:56:09;;;;;;;0.10;0.10;;;;;;;7.94;59.70;102076.38;5065002;28;20032;-84
2022/02/05 08:58:35;;;;;;;0.10;0.10;;;;;;;7.94;60.07;102081.66;5071291;28;20021;-82
2022/02/05 09:01:21;;;;;;;0.10;0.10;;;;;;;7.97;59.32;102086.06;5064567;28;20033;-83
2022/02/05 09:04:16;;;;;;;0.10;0.10;;;;;;;7.99;59.43;102084.31;5066872;28;20041;-81
2022/02/05 09:06:40;;;;;;;0.10;0.10;;;;;;;7.99;58.93;102095.78;5070774;28;20052;-81
2022/02/05 09:09:10;;;;;;;1.70;1.65;;;;;;;7.89;59.31;102109.75;5065176;28;20112;-83
2022/02/05 09:11:51;;;;;;;0.10;0.10;;;;;;;8.12;59.09;102109.09;5063830;28;20086;-84
2022/02/05 09:14:33;;;;;;;0.10;0.10;;;;;;;8.17;58.83;102099.47;5056894;28;20041;-83
2022/02/05 09:16:59;;;;;;;0.28;0.28;;;;;;;8.20;58.44;102091.56;5067772;28;20036;-84
2022/02/05 09:19:26;;;;;;;0.05;0.05;;;;;;;8.32;58.29;102089.06;5067798;28;20029;-86
2022/02/05 09:21:52;;;;;;;0.10;0.10;;;;;;;8.45;58.04;102084.78;5055270;28;20086;-86
2022/02/05 09:24:18;;;;;;;0.10;0.10;;;;;;;8.45;58.03;102094.44;5055671;28;20065;-86
2022/02/05 09:26:48;;;;;;;4.20;3.83;;;;;;;8.52;57.69;102106.88;5055130;28;20128;-87
2022/02/05 09:29:20;;;;;;;0.10;0.10;;;;;;;8.62;57.25;102081.44;5074876;28;20086;-86
2022/02/05 09:31:47;;;;;;;0.10;0.10;;;;;;;8.63;57.03;102099.94;5075302;28;20028;-87
2022/02/05 09:34:14;;;;;;;0.10;0.10;;;;;;;8.66;57.26;102092.03;5066360;28;20120;-88
2022/02/05 09:36:40;;;;;;;0.45;0.45;;;;;;;8.63;57.21;102086.72;5057882;28;20044;-86
2022/02/05 09:39:08;;;;;;;0.08;0.08;;;;;;;8.69;56.55;102091.19;5061636;28;20029;-87
2022/02/05 09:41:34;;;;;;;0.10;0.10;;;;;;;8.78;56.76;102074.50;5060740;28;20021;-86
2022/02/05 09:44:00;;;;;;;0.10;0.10;;;;;;;8.64;56.59;102080.56;5061424;28;20028;-87
2022/02/05 09:46:26;;;;;;;0.10;0.10;;;;;;;8.86;56.05;102072.78;5060485;28;20021;-87
2022/02/05 09:48:54;;;;;;;0.20;0.20;;;;;;;8.92;56.13;102064.03;5059652;28;20360;-85
2022/02/05 09:51:26;;;;;;;1.98;1.42;;;;;;;8.99;56.26;102066.72;5056291;28;20025;-86
2022/02/05 09:53:53;;;;;;;0.10;0.10;;;;;;;9.01;55.82;102067.63;5055470;28;20375;-85
2022/02/05 09:56:22;;;;;;;0.10;0.10;;;;;;;9.16;55.80;102065.91;5053898;28;20071;-84
2022/02/05 09:58:49;;;;;;;0.10;0.10;;;;;;;9.21;55.35;102058.91;5054709;28;20051;-86
2022/02/05 10:01:19;;;;;;;1.95;1.85;;;;;;;9.24;55.14;102080.06;5054580;28;20044;-85
2022/02/05 10:03:47;;;;;;;0.30;0.30;;;;;;;9.15;54.90;102072.97;5054516;28;20061;-88
2022/02/05 10:06:25;;;;;;;0.10;0.10;;;;;;;9.23;54.73;102070.38;5054930;28;20036;-84
2022/02/05 10:09:12;;;;;;;0.10;0.10;;;;;;;9.48;54.36;102067.84;5054712;28;20029;-87
2022/02/05 10:11:49;;;;;;;0.10;0.10;;;;;;;9.26;54.16;102080.97;5054085;28;20071;-86
2022/02/05 10:14:21;;;;;;;0.10;0.10;;;;;;;9.20;53.90;102075.66;5053070;28;20527;-86
2022/02/05 10:16:54;;;;;;;0.10;0.10;;;;;;;9.25;54.31;102063.34;5054448;28;20343;-87
2022/02/05 10:19:20;;;;;;;;;;;;;;;9.41;53.05;102066.94;5054772;28;20105;-86
2022/02/05 10:22:03;;;;;;;0.10;0.10;;;;;;;9.27;53.90;102071.28;5053743;28;19919;-87
2022/02/05 10:24:30;;;;;;;0.10;0.10;;;;;;;9.30;53.33;102066.88;5054120;28;20498;-86
2022/02/05 10:26:57;;;;;;;0.03;0.03;;;;;;;9.41;53.11;102079.28;5053887;28;20036;-88
2022/02/05 10:29:23;;;;;;;0.00;0.00;;;;;;;9.48;53.12;102062.56;5054113;28;20033;-88
2022/02/05 10:32:09;;;;;;;0.10;0.10;;;;;;;9.63;52.74;102065.28;5053778;28;20099;-86
2022/02/05 10:35:02;;;;;;;0.10;0.10;;;;;;;9.75;52.38;102060.91;5053880;28;20498;-87
2022/02/05 10:37:33;;;;;;;;;;;;;;;9.82;51.92;102078.53;5054079;28;20112;-87
2022/02/05 10:40:08;;;;;;;0.10;0.10;;;;;;;9.71;51.76;102071.47;5053949;28;19923;-88
2022/02/05 10:43:11;;;;;;;0.10;0.10;;;;;;;9.70;51.75;102067.03;5053704;28;20039;-87
2022/02/05 10:45:29;;;;;;;0.10;0.10;;;;;;;9.60;51.70;102059.97;5053581;28;20447;-87
2022/02/05 10:47:57;;;;;;;0.30;0.30;;;;;;;9.75;52.28;102052.97;5052588;28;20436;-87
2022/02/05 10:50:29;;;;;;;0.10;0.10;;;;;;;9.83;52.77;102053.84;5053227;28;20033;-87
2022/02/05 10:53:04;;;;;;;0.20;0.20;;;;;;;9.69;52.36;102065.31;5053394;28;20399;-87
2022/02/05 10:59:11;;;;;;;0.32;0.32;;;;;;;9.75;51.64;102059.13;5070350;28;20395;-86
2022/02/05 11:07:14;;;;;;;0.10;0.10;;;;;;;9.62;52.19;102058.22;5049848;28;20037;-88
2022/02/05 11:09:44;;;;;;;0.32;0.28;;;;;;;9.70;51.85;102056.47;5050259;28;20391;-87
2022/02/05 11:20:25;;;;;;;0.10;0.10;;;;;;;9.77;51.92;102052.09;5081701;28;20814;-88
2022/02/05 11:23:06;;;;;;;0.10;0.10;;;;;;;9.71;51.92;102050.28;5070442;28;20036;-86
2022/02/05 11:25:41;;;;;;;0.10;0.10;;;;;;;9.82;54.36;102049.44;5070545;28;20109;-86
2022/02/05 11:28:10;;;;;;;0.10;0.10;;;;;;;9.97;54.80;102043.28;5070230;28;20108;-88
2022/02/05 11:30:42;;;;;;;0.10;0.10;;;;;;;9.94;54.64;102036.22;5070525;28;20107;-88
2022/02/05 11:33:29;;;;;;;0.10;0.10;;;;;;;10.13;54.82;102028.31;5070248;28;20033;-87
2022/02/05 11:39:02;;;;;;;0.10;0.10;;;;;;;10.08;56.00;102025.66;5111413;27;20396;-87
2022/02/05 11:41:32;;;;;;;0.00;0.00;;;;;;;10.23;55.20;102030.09;5111041;28;20032;-86
2022/02/05 11:44:28;;;;;;;0.35;0.35;;;;;;;10.28;54.39;102016.84;5111118;28;20058;-86
2022/02/05 11:47:22;;;;;;;0.10;0.10;;;;;;;10.46;54.59;102021.28;5110917;28;20129;-85
2022/02/05 11:55:37;;;;;;;0.10;0.10;;;;;;;10.42;54.85;102030.09;5090889;28;20950;-88
2022/02/05 11:58:06;;;;;;;1.63;1.30;;;;;;;10.37;54.30;102024.84;5070127;28;20565;-89
2022/02/05 12:03:29;;;;;;;0.10;0.10;;;;;;;10.44;54.78;102007.16;5031903;28;20434;-87
2022/02/05 12:06:01;;;;;;;0.10;0.10;;;;;;;10.40;55.32;102011.56;5030002;28;20408;-88
2022/02/05 12:08:34;;;;;;;0.03;0.03;;;;;;;10.46;55.15;101994.78;5012900;28;20084;-86
2022/02/05 12:11:03;;;;;;;0.10;0.10;;;;;;;10.41;54.88;101993.91;5016573;28;20034;-88
2022/02/05 12:13:36;;;;;;;0.10;0.10;;;;;;;10.62;54.76;101996.53;5010355;28;20384;-88
2022/02/05 12:19:11;;;;;;;0.08;0.08;;;;;;;10.76;53.70;101979.72;5074863;27;20415;-88
2022/02/05 12:25:22;;;;;;;0.10;0.10;;;;;;;10.85;52.04;101971.72;5091060;27;20392;-86
2022/02/05 12:27:48;;;;;;;0.10;0.10;;;;;;;10.83;52.85;101973.53;5050437;28;20025;-87
2022/02/05 12:33:10;;;;;;;0.15;0.15;;;;;;;10.74;51.00;101962.94;5090800;27;20956;-86
2022/02/05 12:35:48;;;;;;;0.10;0.10;;;;;;;10.63;51.73;101966.50;5065568;28;20032;-87
2022/02/05 12:38:14;;;;;;;0.47;0.47;;;;;;;10.62;52.13;101970.03;5050817;28;20029;-88
2022/02/05 12:40:42;;;;;;;0.10;0.10;;;;;;;10.54;52.33;101963.84;5045217;28;20029;-88
2022/02/05 12:43:09;;;;;;;0.10;0.10;;;;;;;10.86;51.53;101957.59;5050485;28;20021;-88
2022/02/05 12:45:38;;;;;;;0.20;0.20;;;;;;;10.87;50.93;101955.84;5050431;28;20543;-89
2022/02/05 12:48:08;;;;;;;0.10;0.10;;;;;;;10.63;50.99;101976.19;5050085;28;20055;-87
2022/02/05 12:50:39;;;;;;;0.00;0.00;;;;;;;10.83;50.99;101953.19;5050338;28;20104;-88
2022/02/05 12:53:09;;;;;;;0.83;0.83;;;;;;;10.74;51.09;101947.03;5050168;28;20082;-87
2022/02/05 12:55:44;;;;;;;0.10;0.10;;;;;;;10.84;50.88;101954.97;5050032;28;20041;-88
2022/02/05 12:58:11;;;;;;;2.45;1.08;;;;;;;10.65;50.76;101958.53;5050123;28;20029;-88
2022/02/05 13:00:37;;;;;;;0.10;0.10;;;;;;;10.80;51.25;101953.22;5049187;28;20039;-88
2022/02/05 13:03:22;;;;;;;0.28;0.28;;;;;;;10.83;50.78;101944.38;5050260;28;20047;-87
2022/02/05 13:05:49;;;;;;;0.08;0.08;;;;;;;10.76;50.82;101945.25;5049729;28;20063;-87
2022/02/05 13:08:15;;;;;;;0.10;0.10;;;;;;;10.84;50.75;101935.50;5050005;28;20025;-89
2022/02/05 13:10:43;;;;;;;0.10;0.10;;;;;;;10.92;51.10;101930.19;5049271;28;20383;-88
2022/02/05 13:13:09;;;;;;;0.20;0.20;;;;;;;10.97;51.04;101931.91;5050275;28;20033;-88
2022/02/05 13:15:36;;;;;;;0.73;0.35;;;;;;;10.98;51.06;101920.44;5049624;28;20060;-87
2022/02/05 13:18:15;;;;;;;0.00;0.00;;;;;;;10.90;50.92;101921.34;5050480;28;20025;-80
2022/02/05 13:26:41;;;;;;;0.00;0.00;;;;;;;10.40;51.72;101915.31;5069548;28;20040;-87
2022/02/05 13:29:21;;;;;;;0.30;0.30;;;;;;;10.40;51.68;101904.72;5070110;28;20025;-88
2022/02/05 13:34:35;;;;;;;0.10;0.10;;;;;;;10.30;52.35;101895.88;5048463;28;20492;-87
2022/02/05 13:39:57;;;;;;;0.00;0.00;;;;;;;10.27;52.98;101899.41;5020111;27;1921964;-89
2022/02/05 13:42:29;;;;;;;0.10;0.10;;;;;;;10.41;52.58;101895.91;5086416;28;20484;-88
2022/02/05 13:45:01;;;;;;;0.20;0.20;;;;;;;10.45;52.80;101884.41;5083103;28;20035;-89
2022/02/05 13:47:36;;;;;;;0.10;0.10;;;;;;;10.39;53.14;101882.63;5085538;28;20159;-87
2022/02/05 13:52:48;;;;;;;0.10;0.10;;;;;;;10.31;54.45;101901.16;5071627;27;20917;-85
2022/02/05 13:55:20;;;;;;;0.10;0.10;;;;;;;10.50;53.89;101877.31;5069567;28;20497;-86
2022/02/05 13:58:07;;;;;;;0.10;0.10;;;;;;;10.36;53.95;101878.22;5069469;28;20084;-88
2022/02/05 14:00:56;;;;;;;0.10;0.10;;;;;;;10.63;53.35;101868.44;5061082;28;20036;-89
2022/02/05 14:14:18;;;;;;;0.10;0.10;;;;;;;10.52;53.73;101879.06;5090383;27;20409;-89
2022/02/05 14:16:45;;;;;;;0.20;0.20;;;;;;;10.50;54.26;101872.00;5070300;28;20570;-87
2022/02/05 14:19:21;;;;;;;2.95;0.85;;;;;;;10.61;54.51;101850.78;5070154;28;20024;-89
2022/02/05 14:21:49;;;;;;;0.10;0.10;;;;;;;10.72;53.95;101858.69;5063099;28;20026;-86
2022/02/05 14:24:18;;;;;;;0.15;0.15;;;;;;;10.58;54.11;101867.56;5059819;28;20036;-88
2022/02/05 14:26:59;;;;;;;0.10;0.10;;;;;;;10.58;53.95;101861.38;5055470;28;20483;-87
2022/02/05 14:29:26;;;;;;;0.10;0.10;;;;;;;10.62;53.80;101871.09;5053881;28;20033;-87
2022/02/05 14:31:55;;;;;;;0.20;0.20;;;;;;;10.71;53.37;101846.31;5062146;28;20035;-88
2022/02/05 14:34:44;;;;;;;0.10;0.10;;;;;;;10.56;53.53;101858.75;5061759;28;20481;-87
2022/02/05 14:42:45;;;;;;;0.30;0.30;;;;;;;10.62;53.87;101834.88;5064337;28;20098;-86
2022/02/05 14:45:12;;;;;;;0.00;0.00;;;;;;;10.70;53.49;101833.97;5053330;28;20060;-90
2022/02/05 14:47:39;;;;;;;0.10;0.10;;;;;;;10.70;53.60;101836.59;5064906;28;20108;-89
2022/02/05 14:50:07;;;;;;;0.63;0.63;;;;;;;10.80;53.48;101846.28;5055685;28;20610;-88